Flight Track Log - Related Links

Times and Time Zones

All times are in EDT time to prevent confusion due to time zone crossing. See the JBU729 flight status page for this flight to view local times or setup timezone preferences in your user account.

Time Position Orientation Groundspeed Altitude Reporting Facility
EDT Latitude Longitude Course Direction KTS km/h feet Rate Location/Type
Sun 23:47:35 28.4400 -81.3220 360° North 161 298 200  Level FlightAware ADS-B
Sun 23:48:00 28.4570 -81.3150 20° North 143 266 1,400 1,964 Climbing FlightAware ADS-B
Sun 23:48:30 28.4720 -81.2950 50° Northeast 177 328 2,000 1,091 Climbing FlightAware ADS-B
Sun 23:48:55 28.4850 -81.2740 55° Northeast 215 398 2,400 1,745 Climbing FlightAware ADS-B
Sun 23:49:25 28.5000 -81.2420 62° Northeast 229 425 3,600 2,640 Climbing FlightAware ADS-B
Sun 23:49:45 28.5020 -81.2180 85° East 232 430 4,600 2,700 Climbing FlightAware ADS-B
Sun 23:50:05 28.4990 -81.1950 98° East 232 430 5,400 2,571 Climbing FlightAware ADS-B
Sun 23:50:20 28.4870 -81.1810 134° Southeast 234 433 6,100 2,133 Climbing FlightAware ADS-B
Sun 23:50:50 28.4570 -81.1570 145° Southeast 276 512 7,000 2,291 Climbing FlightAware ADS-B
Sun 23:51:15 28.4340 -81.1330 137° Southeast 282 523 8,200 2,727 Climbing FlightAware ADS-B
Sun 23:51:45 28.4070 -81.0990 132° Southeast 292 541 9,500 2,143 Climbing FlightAware ADS-B
Sun 23:52:25 28.3680 -81.0510 133° Southeast 328 607 10,700 2,329 Climbing FlightAware ADS-B
Sun 23:53:10 28.3230 -80.9890 129° Southeast 336 623 12,800 2,541 Climbing FlightAware ADS-B
Sun 23:53:50 28.2870 -80.9310 125° Southeast 342 634 14,300 2,188 Climbing FlightAware ADS-B
Sun 23:54:35 28.2440 -80.8620 125° Southeast 362 671 15,900 2,047 Climbing FlightAware ADS-B
Sun 23:55:15 28.2050 -80.8000 126° Southeast 369 684 17,200 1,875 Climbing FlightAware ADS-B
Sun 23:55:55 28.1650 -80.7350 125° Southeast 384 711 18,400 1,835 Climbing FlightAware ADS-B
Sun 23:56:40 28.1170 -80.6590 126° Southeast 393 727 19,800 1,765 Climbing FlightAware ADS-B
Sun 23:57:20 28.0740 -80.5910 126° Southeast 400 740 20,900 1,482 Climbing FlightAware ADS-B
Sun 23:58:05 28.0230 -80.5110 126° Southeast 420 777 21,900 1,412 Climbing FlightAware ADS-B
Sun 23:58:45 27.9790 -80.4410 125° Southeast 420 777 22,900 1,575 Climbing FlightAware ADS-B
Sun 23:59:25 27.9350 -80.3640 123° Southeast 426 789 24,000 1,624 Climbing FlightAware ADS-B
Mon 00:00:10 27.9060 -80.2710 109° East 427 790 25,200 1,482 Climbing FlightAware ADS-B
Mon 00:00:50 27.8810 -80.1860 108° East 435 806 26,100 1,350 Climbing FlightAware ADS-B
Mon 00:01:30 27.8560 -80.0990 108° East 438 811 27,000 1,200 Climbing FlightAware ADS-B
Mon 00:02:15 27.8280 -80.0000 108° East 443 821 27,800 1,059 Climbing FlightAware ADS-B
Mon 00:02:55 27.8020 -79.9090 108° East 451 835 28,500 1,059 Climbing FlightAware ADS-B
Mon 00:03:40 27.7730 -79.8080 108° East 456 845 29,300 1,059 Climbing FlightAware ADS-B
Mon 00:04:20 27.7470 -79.7210 109° East 459 850 30,000 847 Climbing FlightAware ADS-B
Mon 00:05:05 27.7240 -79.6120 103° East 474 877 30,500 776 Climbing FlightAware ADS-B
Mon 00:05:45 27.7120 -79.5140 98° East 475 880 31,100 825 Climbing FlightAware ADS-B
Mon 00:06:25 27.7000 -79.4140 98° East 480 888 31,600 1,059 Climbing FlightAware ADS-B
Mon 00:07:10 27.6850 -79.3030 99° East 476 882 32,600 918 Climbing FlightAware ADS-B
Mon 00:07:50 27.6730 -79.2030 98° East 486 900 32,900 525 Climbing FlightAware ADS-B
Mon 00:08:30 27.6540 -79.1040 102° East 491 909 33,300 635 Climbing FlightAware ADS-B
Mon 00:09:15 27.6210 -79.0000 110° East 493 912 33,800 847 Climbing FlightAware ADS-B
Mon 00:09:55 27.5830 -78.9030 114° Southeast 481 892 34,500 1,059 Climbing FlightAware ADS-B
Mon 00:10:40 27.5280 -78.8110 124° Southeast 462 856 35,300 847 Climbing FlightAware ADS-B
Mon 00:11:20 27.4720 -78.7360 130° Southeast 472 874 35,700 353 Climbing FlightAware ADS-B
Mon 00:12:05 27.4110 -78.6500 129° Southeast 475 880 35,800 400 Climbing FlightAware ADS-B
Mon 00:12:35 27.3690 -78.5920 129° Southeast 473 875 36,200 900 Climbing FlightAware ADS-B
Mon 00:13:25 27.3040 -78.4960 127° Southeast 468 867 37,000 565 Climbing FlightAware ADS-B
Mon 00:14:00 27.2590 -78.4300 127° Southeast 478 885 37,000  Level FlightAware ADS-B
Mon 00:14:50 27.1880 -78.3270 128° Southeast 482 893 37,000  Level FlightAware ADS-B
Mon 00:15:25 27.1450 -78.2640 127° Southeast 479 887 37,000  Level FlightAware ADS-B
Mon 00:16:05 27.0910 -78.1850 128° Southeast 478 885 37,000  Level FlightAware ADS-B
Mon 00:16:55 27.0240 -78.0870 127° Southeast 479 887 37,000  Level FlightAware ADS-B
Mon 00:17:40 26.9570 -77.9920 128° Southeast 482 893 37,000  Level FlightAware ADS-B
Mon 00:18:15 26.9190 -77.9350 127° Southeast 477 884 37,000 -44 Level FlightAware ADS-B
Mon 00:19:55 26.7790 -77.7330 128° Southeast 479 887 36,900  Descending FlightAware ADS-B
Mon 00:20:55 26.7000 -77.6180 128° Southeast 479 887 37,000 60 Climbing FlightAware ADS-B
Mon 00:21:35 26.6550 -77.5500 127° Southeast 479 887 37,000  Level FlightAware ADS-B
Mon 00:22:15 26.6110 -77.4820 126° Southeast 479 887 37,000  Level FlightAware ADS-B
Mon 00:22:55 26.5670 -77.4140 126° Southeast 479 887 37,000  Level FlightAware ADS-B
Mon 00:23:35 26.5220 -77.3460 126° Southeast 479 887 37,000  Level FlightAware ADS-B
Mon 00:24:25 26.4670 -77.2600 126° Southeast 479 887 37,000  Level FlightAware ADS-B
Mon 00:25:05 26.4230 -77.1920 126° Southeast 479 887 37,000  Level FlightAware ADS-B
Mon 00:25:45 26.3780 -77.1240 126° Southeast 479 887 37,000  Level FlightAware ADS-B
Mon 00:26:25 26.3340 -77.0560 126° Southeast 479 887 37,000  Level FlightAware ADS-B
Mon 00:27:15 26.2790 -76.9710 126° Southeast 479 887 37,000  Level FlightAware ADS-B
Mon 00:27:55 26.2340 -76.9030 126° Southeast 479 887 37,000  Level FlightAware ADS-B
Mon 00:28:35 26.1900 -76.8350 126° Southeast 479 887 37,000  Level FlightAware ADS-B
Mon 00:29:15 26.1460 -76.7670 126° Southeast 479 887 37,000  Level FlightAware ADS-B
Mon 00:29:55 26.1020 -76.7000 126° Southeast 479 887 37,000 -71 Level FlightAware ADS-B
Mon 00:30:40 25.8789 -76.4639 126° Southeast 493 912 36,900 -58 Descending Miami Center
Mon 00:31:39 25.7950 -76.3442 128° Southeast 493 912 36,900 50 Level Miami Center
Mon 00:32:39 25.7067 -76.2244 129° Southeast 493 912 37,000 49 Climbing Miami Center
Mon 00:33:42 25.6228 -76.1050 128° Southeast 493 912 37,000  Level Miami Center
Mon 00:34:41 25.5300 -75.9836 130° Southeast 499 924 37,000  Level Miami Center
Mon 00:35:39 25.4478 -75.8667 128° Southeast 493 912 37,000  Level Miami Center
Mon 00:36:39 25.3592 -75.7481 130° Southeast 498 922 37,000  Level Miami Center
Mon 00:37:42 25.2725 -75.6269 128° Southeast 498 922 37,000  Level Miami Center
Mon 00:38:40 25.1772 -75.4994 130° Southeast 498 922 37,000  Level Miami Center
Mon 00:39:42 25.0906 -75.3786 128° Southeast 498 922 37,000  Level Miami Center
Mon 00:40:41 25.0014 -75.2606 130° Southeast 498 922 37,000  Level Miami Center
Mon 00:41:40 24.9144 -75.1403 129° Southeast 498 922 37,000  Level Miami Center
Mon 00:42:39 24.8253 -75.0200 129° Southeast 498 922 37,000  Level Miami Center
Mon 00:43:40 24.7358 -74.9003 129° Southeast 499 924 37,000  Level Miami Center
Mon 00:44:39 24.6486 -74.7806 129° Southeast 499 924 37,000  Level Miami Center
Mon 00:45:41 24.5614 -74.6678 130° Southeast 494 914 37,000  Level Miami Center
Mon 00:46:39 24.4717 -74.5436 128° Southeast 500 925 37,000  Level Miami Center
Mon 00:47:39 24.3842 -74.4267 129° Southeast 500 925 37,000  Level Miami Center
Mon 00:48:40 24.2900 -74.3056 130° Southeast 500 925 37,000  Level Miami Center
Mon 00:49:40 24.2044 -74.1889 129° Southeast 500 925 37,000  Level Miami Center
Mon 00:50:40 24.1167 -74.0722 129° Southeast 500 925 37,000  Level Miami Center
Mon 00:51:39 24.0225 -73.9492 130° Southeast 500 925 37,000  Level Miami Center
Mon 00:52:40 23.9364 -73.8331 129° Southeast 500 925 37,000  Level Miami Center
Mon 00:53:39 23.8569 -73.7283 130° Southeast 500 925 37,000  Level Miami Center
Mon 00:54:39 23.7625 -73.6103 131° Southeast 500 925 37,000  Level Miami Center
Mon 00:55:39 23.6744 -73.4922 129° Southeast 500 925 37,000  Level Miami Center
Mon 00:56:40 23.5858 -73.3747 129° Southeast 500 925 37,000  Level Miami Center
Mon 00:57:40 23.4914 -73.2572 131° Southeast 500 925 37,000  Level Miami Center
Mon 00:58:41 23.3986 -73.1375 130° Southeast 505 935 37,000  Level Miami Center
Mon 00:59:39 23.3100 -73.0225 130° Southeast 505 935 37,000  Level Miami Center
Mon 01:00:42 23.2192 -72.9033 130° Southeast 510 945 37,000  Level Miami Center
Mon 01:01:39 23.1283 -72.7864 130° Southeast 510 945 37,000  Level Miami Center
Mon 01:02:39 23.0375 -72.6675 130° Southeast 515 954 37,000  Level Miami Center
Mon 01:03:41 22.9417 -72.5353 128° Southeast 510 945 37,000  Level Miami Center
Mon 01:04:40 22.8506 -72.4189 130° Southeast 510 945 37,000  Level Miami Center
Mon 01:05:41 22.7575 -72.3050 132° Southeast 510 945 37,000  Level Miami Center
Mon 01:06:39 22.6661 -72.1869 130° Southeast 510 945 37,000  Level Miami Center
Mon 01:07:42 22.5750 -72.0711 130° Southeast 510 945 37,000  Level Miami Center
Mon 01:08:41 22.4878 -71.9575 130° Southeast 510 945 37,000 -51 Level Miami Center
Mon 01:09:39 22.3986 -71.8442 130° Southeast 505 935 36,900  Descending Miami Center
Mon 01:10:39 22.3069 -71.7286 131° Southeast 505 935 37,000 50 Climbing Miami Center
Mon 01:11:39 22.2153 -71.6111 130° Southeast 505 935 37,000  Level Miami Center
Mon 01:12:39 22.1236 -71.4961 131° Southeast 505 935 37,000 -50 Level Miami Center
Mon 01:13:39 22.0361 -71.3833 130° Southeast 505 935 36,900  Descending Miami Center
Mon 01:14:40 21.9422 -71.2664 131° Southeast 510 945 37,000 49 Climbing Miami Center
Mon 01:15:41 21.8503 -71.1497 130° Southeast 510 945 37,000  Level Miami Center
Mon 01:16:42 21.7672 -71.0461 131° Southeast 510 945 37,000 -50 Level Miami Center
Mon 01:17:42 21.6728 -70.9275 131° Southeast 515 954 36,900 -513 Descending Miami Center
Mon 01:18:39 21.5786 -70.8114 131° Southeast 515 954 36,000 -966 Descending Miami Center
Mon 01:19:40 21.4844 -70.6975 132° Southeast 520 962 35,000 -500 Descending Miami Center
Mon 01:20:39 21.3900 -70.5817 131° Southeast 520 962 35,000  Level Miami Center
Mon 01:21:40 21.2933 -70.4636 131° Southeast 520 962 35,000  Level Miami Center
Mon 01:22:39 21.1992 -70.3525 132° Southeast 520 962 35,000 -50 Level Miami Center
Mon 01:23:39 21.1044 -70.2350 131° Southeast 520 962 34,900  Descending Miami Center
Mon 01:24:42 21.0078 -70.1175 131° Southeast 520 962 35,000 50 Climbing Miami Center
Mon 01:25:40 20.9150 -70.0025 131° Southeast 520 962 35,000  Level Miami Center
Mon 01:26:39 20.8203 -69.8875 131° Southeast 520 962 35,000  Level Miami Center
Mon 01:27:39 20.7258 -69.7772 132° Southeast 515 954 35,000  Level Miami Center
Mon 01:28:39 20.6353 -69.6647 131° Southeast 515 954 35,000  Level Miami Center
Mon 01:29:42 20.5444 -69.5522 131° Southeast 515 954 35,000 -50 Level Miami Center
Mon 01:30:40 20.4497 -69.4400 132° Southeast 515 954 34,900  Descending Miami Center
Mon 01:31:42 20.3569 -69.3303 132° Southeast 510 945 35,000 49 Climbing Miami Center
Mon 01:32:42 20.2619 -69.2186 132° Southeast 510 945 35,000  Level Miami Center
Mon 01:33:39 20.1731 -69.1067 130° Southeast 510 945 35,000  Level Miami Center
Mon 01:34:42 20.0714 -68.9867 132° Southeast 505 935 35,000  Level Miami Center
Mon 01:35:39 19.9783 -68.8775 132° Southeast 500 925 35,000  Level Miami Center
Mon 01:36:41 19.8856 -68.7683 132° Southeast 495 917 35,000 -49 Level Miami Center
Mon 01:37:41 19.7964 -68.6569 130° Southeast 495 917 34,900 -1,983 Descending Miami Center
Mon 01:38:39 19.7053 -68.5461 131° Southeast 495 917 31,100 -3,072 Descending Miami Center
Mon 01:39:46 19.6000 -68.4167 131° Southeast 510 945 28,500 -2,173 Descending San Juan Center
Mon 01:40:46 19.5167 -68.3000 127° Southeast 480 888 26,500 -2,050 Descending San Juan Center
Mon 01:41:46 19.4167 -68.2000 137° Southeast 460 851 24,400 -1,785 Descending San Juan Center
Mon 01:42:47 19.3333 -68.1167 137° Southeast 430 797 22,900 -1,884 Descending San Juan Center
Mon 01:43:47 19.2500 -68.0333 137° Southeast 430 797 20,600 -2,650 Descending San Juan Center
Mon 01:44:47 19.1500 -67.9500 142° Southeast 440 814 17,600 -2,826 Descending San Juan Center
Mon 01:45:48 19.0500 -67.8667 142° Southeast 440 814 14,900 -2,876 Descending San Juan Center
Mon 01:46:48 18.9667 -67.7833 137° Southeast 420 777 11,800 -2,150 Descending San Juan Center
Mon 01:47:48 18.8833 -67.7167 143° Southeast 370 686 10,600 -1,190 Descending San Juan Center
Mon 01:48:49 18.8167 -67.6500 137° Southeast 310 575 9,400 -1,240 Descending San Juan Center
Mon 01:49:49 18.7500 -67.6000 145° Southeast 290 538 8,100 -1,200 Descending San Juan Center
Mon 01:50:49 18.7000 -67.5500 137° Southeast 280 518 7,000 -694 Descending San Juan Center
Mon 01:51:50 18.6333 -67.5000 145° Southeast 260 481 6,700 -1,091 Descending San Juan Center
Mon 01:52:50 18.6000 -67.4500 125° Southeast 230 426 4,800 -1,800 Descending San Juan Center
Mon 01:53:50 18.5333 -67.4000 145° Southeast 240 444 3,100 -1,140 Descending San Juan Center
Mon 01:54:51 18.5000 -67.3667 137° Southeast 210 389 2,500 -298 Descending San Juan Center
Mon 01:55:51 18.4500 -67.3333 148° Southeast 190 352 2,500 -50 Level San Juan Center
Mon 01:56:51 18.4333 -67.3000 118° Southeast 180 333 2,400 -300 Descending San Juan Center
Mon 01:57:51 18.4500 -67.2500 71° East 180 333 1,900 -347 Descending San Juan Center
Mon 01:58:52 18.4500 -67.2167 90° East 120 222 1,700 -446 Descending San Juan Center
Mon 01:59:52 18.4667 -67.1667 71° East 120 222 1,000 -700 Descending San Juan Center

Login

Don't have an account? Register now (free) for customized features, flight alerts, and more!